Time;durP1;ratioP1;P1;durP2;ratioP2;P2;SDS_P1;SDS_P2;PMS_P1;PMS_P2;Temp;Humidity;BMP_temperature;BMP_pressure;BME280_temperature;BME280_humidity;BME280_pressure;Samples;Min_cycle;Max_cycle;Signal;HPM_P1;HPM_P2
2022/03/17 00:00:53;;;;;;;;;;;8.70;99.90;;;;;;5074334;28;19924;-57
2022/03/17 00:03:19;;;;;;;;;;;8.70;99.90;;;;;;5075366;28;19971;-56
2022/03/17 00:05:47;;;;;;;;;;;8.70;99.90;;;;;;5075029;28;19928;-57
2022/03/17 00:08:14;;;;;;;;;;;8.50;99.90;;;;;;5074072;28;19925;-56
2022/03/17 00:10:42;;;;;;;;;;;8.50;99.90;;;;;;5074502;28;19924;-57
2022/03/17 00:13:09;;;;;;;;;;;8.50;99.90;;;;;;5074530;28;19924;-56
2022/03/17 00:15:38;;;;;;;;;;;8.60;99.90;;;;;;5075340;28;19924;-56
2022/03/17 00:18:05;;;;;;;;;;;8.50;99.90;;;;;;5075232;28;20249;-56
2022/03/17 00:20:32;;;;;;;;;;;8.50;99.90;;;;;;5076456;28;19925;-56
2022/03/17 00:22:59;;;;;;;;;;;8.40;99.90;;;;;;5075047;28;19981;-57
2022/03/17 00:25:29;;;;;;;;;;;8.30;99.90;;;;;;5077636;28;19928;-56
2022/03/17 00:27:57;;;;;;;;;;;8.10;99.90;;;;;;5060393;28;20000;-56
2022/03/17 00:30:24;;;;;;;;;;;7.90;99.90;;;;;;5069822;28;19924;-56
2022/03/17 00:32:50;;;;;;;;;;;7.90;99.90;;;;;;5073303;28;20308;-57
2022/03/17 00:35:36;;;;;;;;;;;7.80;99.90;;;;;;5073018;28;19982;-57
2022/03/17 00:38:03;;;;;;;;;;;7.60;99.90;;;;;;5053431;28;19924;-57
2022/03/17 00:40:30;;;;;;;;;;;7.70;99.90;;;;;;5071322;28;19958;-57
2022/03/17 00:42:59;;;;;;;;;;;7.60;99.90;;;;;;5072690;28;20388;-57
2022/03/17 00:45:26;;;;;;;;;;;7.70;99.90;;;;;;5072542;28;20253;-57
2022/03/17 00:47:53;;;;;;;;;;;7.70;99.90;;;;;;5055601;28;19929;-57
2022/03/17 00:50:19;;;;;;;;;;;7.70;99.90;;;;;;5071802;28;19925;-57
2022/03/17 00:52:46;;;;;;;;;;;7.80;99.90;;;;;;5072791;28;19958;-56
2022/03/17 00:55:14;;;;;;;;;;;7.90;99.90;;;;;;5072490;28;19924;-56
2022/03/17 00:57:40;;;;;;;;;;;7.90;99.90;;;;;;5071982;28;19924;-57
2022/03/17 01:00:14;;;;;;;;;;;7.80;99.90;;;;;;5072705;28;19924;-57
2022/03/17 01:02:41;;;;;;;;;;;7.80;99.90;;;;;;5072378;28;19931;-57
2022/03/17 01:05:08;;;;;;;;;;;7.80;99.90;;;;;;5071943;28;19978;-57
2022/03/17 01:07:35;;;;;;;;;;;8.00;99.90;;;;;;5073198;28;19928;-56
2022/03/17 01:10:02;;;;;;;;;;;8.20;99.90;;;;;;5073633;28;19925;-57
2022/03/17 01:12:29;;;;;;;;;;;8.10;99.90;;;;;;5072623;28;19924;-57
2022/03/17 01:14:56;;;;;;;;;;;8.00;99.90;;;;;;5072646;28;20410;-57
2022/03/17 01:17:24;;;;;;;;;;;8.10;99.90;;;;;;5073339;28;19925;-57
2022/03/17 01:19:51;;;;;;;;;;;8.00;99.90;;;;;;5073189;28;19946;-57
2022/03/17 01:22:18;;;;;;;;;;;8.10;99.90;;;;;;5073013;28;19932;-57
2022/03/17 01:24:45;;;;;;;;;;;8.00;99.90;;;;;;5072248;28;19924;-57
2022/03/17 01:27:12;;;;;;;;;;;8.00;99.90;;;;;;5072924;28;19924;-57
2022/03/17 01:29:40;;;;;;;;;;;8.10;99.90;;;;;;5072777;28;19929;-56
2022/03/17 01:32:07;;;;;;;;;;;8.00;99.90;;;;;;5072267;28;20040;-56
2022/03/17 01:34:35;;;;;;;;;;;7.80;99.90;;;;;;5071843;28;19924;-57
2022/03/17 01:37:02;;;;;;;;;;;7.60;99.90;;;;;;5071660;28;19924;-56
2022/03/17 01:39:29;;;;;;;;;;;7.60;99.90;;;;;;5072021;28;19925;-56
2022/03/17 01:41:57;;;;;;;;;;;7.60;99.90;;;;;;5071518;28;20346;-57
2022/03/17 01:44:23;;;;;;;;;;;7.50;99.90;;;;;;5071207;28;19940;-57
2022/03/17 01:49:38;;;;;;;;;;;7.40;99.90;;;;;;5071895;28;20028;-57
2022/03/17 01:52:05;;;;;;;;;;;7.30;99.90;;;;;;5071466;28;19985;-57
2022/03/17 01:54:32;;;;;;;;;;;7.30;99.90;;;;;;5071253;28;20000;-56
2022/03/17 01:56:59;;;;;;;;;;;7.30;99.90;;;;;;5071506;28;19925;-56
2022/03/17 01:59:27;;;;;;;;;;;7.50;99.90;;;;;;5071525;28;19925;-57
2022/03/17 02:01:54;;;;;;;;;;;7.60;99.90;;;;;;5071723;28;19924;-57
2022/03/17 02:04:21;;;;;;;;;;;7.80;99.90;;;;;;5073837;28;19924;-57
2022/03/17 02:06:50;;;;;;;;;;;7.90;99.90;;;;;;5085355;28;19930;-57
2022/03/17 02:09:17;;;;;;;;;;;8.00;99.90;;;;;;5082224;28;19968;-57
2022/03/17 02:14:34;;;;;;;;;;;7.90;99.90;;;;;;5009960;28;19961;-57
2022/03/17 02:17:01;;;;;;;;;;;7.70;99.90;;;;;;5069739;28;19925;-57
2022/03/17 02:19:28;;;;;;;;;;;7.50;99.90;;;;;;5072777;28;19970;-57
2022/03/17 02:21:56;;;;;;;;;;;7.80;99.90;;;;;;5075538;28;19955;-57
2022/03/17 02:27:08;;;;;;;;;;;7.60;99.90;;;;;;5072477;28;19930;-56
2022/03/17 02:29:35;;;;;;;;;;;7.70;99.90;;;;;;5072579;28;19924;-57
2022/03/17 02:32:03;;;;;;;;;;;7.60;99.90;;;;;;5071678;28;19978;-57
2022/03/17 02:34:30;;;;;;;;;;;7.70;99.90;;;;;;5068810;28;19925;-56
2022/03/17 02:36:56;;;;;;;;;;;7.60;99.90;;;;;;5076263;28;19958;-57
2022/03/17 02:39:25;;;;;;;;;;;7.50;99.90;;;;;;5076568;28;20401;-56
2022/03/17 02:41:51;;;;;;;;;;;7.40;99.90;;;;;;5076259;28;19978;-57
2022/03/17 02:44:18;;;;;;;;;;;7.50;99.90;;;;;;5075173;28;19924;-57
2022/03/17 02:46:45;;;;;;;;;;;7.50;99.90;;;;;;5075945;28;19986;-56
2022/03/17 02:49:15;;;;;;;;;;;7.60;99.90;;;;;;5076209;28;20346;-57
2022/03/17 02:51:42;;;;;;;;;;;7.50;99.90;;;;;;5075616;28;19931;-56
2022/03/17 02:54:08;;;;;;;;;;;7.40;99.90;;;;;;5075639;28;19933;-56
2022/03/17 02:56:36;;;;;;;;;;;7.30;99.90;;;;;;5075406;28;20307;-56
2022/03/17 02:59:03;;;;;;;;;;;7.30;99.90;;;;;;5076077;28;19925;-56
2022/03/17 03:01:30;;;;;;;;;;;7.20;99.90;;;;;;5076143;28;20069;-56
2022/03/17 03:03:57;;;;;;;;;;;7.10;99.90;;;;;;5076001;28;19993;-56
2022/03/17 03:06:23;;;;;;;;;;;7.10;99.90;;;;;;5076405;28;19925;-56
2022/03/17 03:08:50;;;;;;;;;;;7.10;99.90;;;;;;5075271;28;20444;-56
2022/03/17 03:11:17;;;;;;;;;;;7.00;99.90;;;;;;5074184;28;19928;-56
2022/03/17 03:13:45;;;;;;;;;;;6.90;99.90;;;;;;5073651;28;20046;-56
2022/03/17 03:16:13;;;;;;;;;;;6.90;99.90;;;;;;5074571;28;20461;-57
2022/03/17 03:18:40;;;;;;;;;;;6.90;99.90;;;;;;5074440;28;20383;-56
2022/03/17 03:21:07;;;;;;;;;;;6.80;99.90;;;;;;5074321;28;20011;-57
2022/03/17 03:23:34;;;;;;;;;;;6.80;99.90;;;;;;5073608;28;20391;-56
2022/03/17 03:26:01;;;;;;;;;;;6.80;99.90;;;;;;5074198;28;19978;-56
2022/03/17 03:28:28;;;;;;;;;;;6.80;99.90;;;;;;5074317;28;19924;-56
2022/03/17 03:30:56;;;;;;;;;;;6.90;99.90;;;;;;5074086;28;19924;-56
2022/03/17 03:33:23;;;;;;;;;;;7.10;99.90;;;;;;5074031;28;19978;-56
2022/03/17 03:38:34;;;;;;;;;;;7.50;99.90;;;;;;5075116;28;19927;-56
2022/03/17 03:41:01;;;;;;;;;;;7.40;99.90;;;;;;5074874;28;19924;-56
2022/03/17 03:43:27;;;;;;;;;;;7.60;99.90;;;;;;5075174;28;19929;-57
2022/03/17 03:45:55;;;;;;;;;;;7.60;99.90;;;;;;5078493;28;19925;-56
2022/03/17 03:48:22;;;;;;;;;;;7.80;99.90;;;;;;5084356;28;19929;-56
2022/03/17 03:50:49;;;;;;;;;;;7.60;99.90;;;;;;5083058;28;19929;-56
2022/03/17 03:53:16;;;;;;;;;;;7.70;99.90;;;;;;5076199;28;20353;-56
2022/03/17 03:55:42;;;;;;;;;;;7.50;99.90;;;;;;5075525;28;19989;-56
2022/03/17 03:58:09;;;;;;;;;;;7.40;99.90;;;;;;5075024;28;19924;-56
2022/03/17 04:00:36;;;;;;;;;;;7.30;99.90;;;;;;5073252;28;20009;-57
2022/03/17 04:03:04;;;;;;;;;;;7.50;99.90;;;;;;5074346;28;19924;-57
2022/03/17 04:05:33;;;;;;;;;;;7.40;99.90;;;;;;5074947;28;20460;-56
2022/03/17 04:08:00;;;;;;;;;;;7.40;99.90;;;;;;5074601;28;19932;-56
2022/03/17 04:10:27;;;;;;;;;;;7.40;99.90;;;;;;5074174;28;19978;-57
2022/03/17 04:12:53;;;;;;;;;;;7.40;99.90;;;;;;5073590;28;19925;-56
2022/03/17 04:15:20;;;;;;;;;;;7.40;99.90;;;;;;5074697;28;20322;-56
2022/03/17 04:17:49;;;;;;;;;;;7.30;99.90;;;;;;5061969;28;19924;-56
2022/03/17 04:20:17;;;;;;;;;;;7.30;99.90;;;;;;5078709;28;19947;-56
2022/03/17 04:22:44;;;;;;;;;;;7.20;99.90;;;;;;5078480;28;19970;-56
2022/03/17 04:25:10;;;;;;;;;;;7.20;99.90;;;;;;5073521;28;19924;-56
2022/03/17 04:27:37;;;;;;;;;;;7.40;99.90;;;;;;5073718;28;19928;-56
2022/03/17 04:30:05;;;;;;;;;;;7.40;99.90;;;;;;5074512;28;19974;-56
2022/03/17 04:32:32;;;;;;;;;;;7.30;99.90;;;;;;5069774;28;20277;-56
2022/03/17 04:34:59;;;;;;;;;;;7.30;99.90;;;;;;5072851;28;19924;-56
2022/03/17 04:37:27;;;;;;;;;;;7.30;99.90;;;;;;5073500;28;19924;-56
2022/03/17 04:39:54;;;;;;;;;;;7.30;99.90;;;;;;5073602;28;19936;-56
2022/03/17 04:42:21;;;;;;;;;;;7.20;99.90;;;;;;5068742;28;19978;-56
2022/03/17 04:44:48;;;;;;;;;;;7.40;99.90;;;;;;5073534;28;19928;-56
2022/03/17 04:47:15;;;;;;;;;;;7.40;99.90;;;;;;5073559;28;19924;-57
2022/03/17 04:49:42;;;;;;;;;;;7.20;99.90;;;;;;5073758;28;19932;-56
2022/03/17 04:53:26;;;;;;;;;;;7.10;99.90;;;;;;5073214;28;20028;-56
2022/03/17 04:54:58;;;;;;;;;;;7.10;99.90;;;;;;5073273;28;19960;-57
2022/03/17 04:57:27;;;;;;;;;;;7.10;99.90;;;;;;5073109;28;20334;-57
2022/03/17 04:59:54;;;;;;;;;;;7.00;99.90;;;;;;5072428;28;20024;-56
2022/03/17 05:02:21;;;;;;;;;;;7.00;99.90;;;;;;5071988;28;20407;-56
2022/03/17 05:04:48;;;;;;;;;;;7.10;99.90;;;;;;5072935;28;19989;-57
2022/03/17 05:07:15;;;;;;;;;;;7.10;99.90;;;;;;5069405;28;19925;-57
2022/03/17 05:09:41;;;;;;;;;;;7.10;99.90;;;;;;5072655;28;19954;-57
2022/03/17 05:12:11;;;;;;;;;;;7.10;99.90;;;;;;5093267;22;19985;-50
2022/03/17 05:14:37;;;;;;;;;;;7.30;99.90;;;;;;5072417;28;19932;-50
2022/03/17 05:17:04;;;;;;;;;;;7.40;99.90;;;;;;5071112;28;19970;-50
2022/03/17 05:19:31;;;;;;;;;;;7.40;99.90;;;;;;5070832;28;19986;-50
2022/03/17 05:21:58;;;;;;;;;;;7.30;99.90;;;;;;5060024;28;20001;-50
2022/03/17 05:24:25;;;;;;;;;;;7.50;99.90;;;;;;5068567;28;19947;-50
2022/03/17 05:26:53;;;;;;;;;;;7.40;99.90;;;;;;5054519;28;19936;-50
2022/03/17 05:29:21;;;;;;;;;;;7.10;99.90;;;;;;5065680;28;20011;-50
2022/03/17 05:31:48;;;;;;;;;;;7.30;99.90;;;;;;5055164;28;19971;-50
2022/03/17 05:34:14;;;;;;;;;;;7.20;99.90;;;;;;5071696;28;19928;-50
2022/03/17 05:36:41;;;;;;;;;;;7.00;99.90;;;;;;5070949;28;20388;-50
2022/03/17 05:39:08;;;;;;;;;;;6.90;99.90;;;;;;5057710;28;19971;-49
2022/03/17 05:41:35;;;;;;;;;;;6.90;99.90;;;;;;5058339;28;19924;-50
2022/03/17 05:44:01;;;;;;;;;;;7.20;99.90;;;;;;5063835;28;19924;-50
2022/03/17 05:46:30;;;;;;;;;;;7.10;99.90;;;;;;5054741;28;19979;-49
2022/03/17 05:48:56;;;;;;;;;;;7.10;99.90;;;;;;5053442;28;20479;-50
2022/03/17 05:51:23;;;;;;;;;;;7.30;99.90;;;;;;5067553;28;19924;-50
2022/03/17 05:53:50;;;;;;;;;;;7.30;99.90;;;;;;5058609;28;20014;-50
2022/03/17 05:56:17;;;;;;;;;;;7.40;99.90;;;;;;5069529;28;19937;-50
2022/03/17 05:58:43;;;;;;;;;;;7.50;99.90;;;;;;5054290;28;19971;-50
2022/03/17 06:01:10;;;;;;;;;;;7.40;99.90;;;;;;5067556;28;20357;-50
2022/03/17 06:03:38;;;;;;;;;;;7.30;99.90;;;;;;5060202;28;19978;-50
2022/03/17 06:06:06;;;;;;;;;;;7.10;99.90;;;;;;5068903;28;19925;-49
2022/03/17 06:08:33;;;;;;;;;;;7.00;99.90;;;;;;5084834;28;19924;-50
2022/03/17 06:10:59;;;;;;;;;;;7.00;99.90;;;;;;5051467;28;20392;-50
2022/03/17 06:13:26;;;;;;;;;;;6.90;99.90;;;;;;5065140;28;20000;-49
2022/03/17 06:15:53;;;;;;;;;;;7.00;99.90;;;;;;5074625;28;19924;-50
2022/03/17 06:18:20;;;;;;;;;;;7.10;99.90;;;;;;5065100;28;19932;-50
2022/03/17 06:20:48;;;;;;;;;;;7.10;99.90;;;;;;5082461;28;19931;-50
2022/03/17 06:23:15;;;;;;;;;;;7.10;99.90;;;;;;5064570;28;19924;-50
2022/03/17 06:25:42;;;;;;;;;;;7.10;99.90;;;;;;5059479;28;19947;-50
2022/03/17 06:28:09;;;;;;;;;;;7.20;99.90;;;;;;5053414;28;19925;-50
2022/03/17 06:30:36;;;;;;;;;;;7.40;99.90;;;;;;5059061;28;20415;-50
2022/03/17 06:33:04;;;;;;;;;;;7.50;99.90;;;;;;5053629;28;19924;-50
2022/03/17 06:35:31;;;;;;;;;;;7.50;99.90;;;;;;5055252;28;19928;-50
2022/03/17 06:38:00;;;;;;;;;;;7.40;99.90;;;;;;5055916;28;19924;-49
2022/03/17 06:40:27;;;;;;;;;;;7.60;99.90;;;;;;5052590;28;19990;-50
2022/03/17 06:42:55;;;;;;;;;;;7.60;99.90;;;;;;5051239;28;20364;-50
2022/03/17 06:45:22;;;;;;;;;;;7.40;99.90;;;;;;5054770;28;20423;-50
2022/03/17 06:47:48;;;;;;;;;;;7.60;99.90;;;;;;5054293;28;19993;-50
2022/03/17 06:50:16;;;;;;;;;;;7.70;99.90;;;;;;5059898;28;19925;-50
2022/03/17 06:52:43;;;;;;;;;;;7.60;99.90;;;;;;5070051;28;19925;-50
2022/03/17 06:55:11;;;;;;;;;;;7.80;99.90;;;;;;5053508;28;19947;-50
2022/03/17 06:57:39;;;;;;;;;;;7.80;99.90;;;;;;5059142;28;19925;-50
2022/03/17 07:00:07;;;;;;;;;;;7.70;99.90;;;;;;5056006;28;19929;-49
2022/03/17 07:02:34;;;;;;;;;;;7.80;99.90;;;;;;5061705;28;19928;-50
2022/03/17 07:05:01;;;;;;;;;;;7.90;99.90;;;;;;5063808;28;20417;-50
2022/03/17 07:07:28;;;;;;;;;;;8.00;99.90;;;;;;5070512;28;19925;-50
2022/03/17 07:09:55;;;;;;;;;;;7.90;99.90;;;;;;5064332;28;20463;-49
2022/03/17 07:12:23;;;;;;;;;;;7.80;99.90;;;;;;5063718;28;19931;-50
2022/03/17 07:14:50;;;;;;;;;;;8.00;99.90;;;;;;5061062;28;20272;-50
2022/03/17 07:17:18;;;;;;;;;;;8.00;99.90;;;;;;5062843;28;19925;-50
2022/03/17 07:19:45;;;;;;;;;;;8.10;99.90;;;;;;5055303;28;19936;-50
2022/03/17 07:22:12;;;;;;;;;;;8.20;99.90;;;;;;5053640;28;19986;-50
2022/03/17 07:24:39;;;;;;;;;;;8.20;99.90;;;;;;5074287;28;19929;-50
2022/03/17 07:27:05;;;;;;;;;;;8.40;99.90;;;;;;5074243;28;19932;-50
2022/03/17 07:29:34;;;;;;;;;;;8.30;99.90;;;;;;5067682;28;19924;-49
2022/03/17 07:32:01;;;;;;;;;;;8.40;99.90;;;;;;5068986;28;20536;-50
2022/03/17 07:34:28;;;;;;;;;;;8.50;99.90;;;;;;5073963;28;19925;-50
2022/03/17 07:36:54;;;;;;;;;;;8.60;99.90;;;;;;5070439;28;19932;-54
2022/03/17 07:39:21;;;;;;;;;;;8.90;99.90;;;;;;5065773;28;20298;-50
2022/03/17 07:41:48;;;;;;;;;;;9.00;99.90;;;;;;5066234;28;19928;-51
2022/03/17 07:44:15;;;;;;;;;;;9.20;99.90;;;;;;5055053;28;19932;-51
2022/03/17 07:46:43;;;;;;;;;;;9.30;99.90;;;;;;5065503;28;19928;-51
2022/03/17 07:49:10;;;;;;;;;;;9.40;99.90;;;;;;5069805;28;19975;-50
2022/03/17 07:51:37;;;;;;;;;;;9.30;99.90;;;;;;5072413;28;19970;-51
2022/03/17 07:54:03;;;;;;;;;;;9.50;99.90;;;;;;5067188;28;19925;-51
2022/03/17 07:56:31;;;;;;;;;;;9.70;99.90;;;;;;5073697;28;20295;-50
2022/03/17 07:58:57;;;;;;;;;;;9.80;99.90;;;;;;5058739;28;20370;-50
2022/03/17 08:01:25;;;;;;;;;;;10.00;99.90;;;;;;5056095;28;19983;-51
2022/03/17 08:03:54;;;;;;;;;;;10.10;99.90;;;;;;5062483;28;19924;-51
2022/03/17 08:06:22;;;;;;;;;;;10.30;99.90;;;;;;5059657;28;19944;-51
2022/03/17 08:08:49;;;;;;;;;;;10.50;99.90;;;;;;5058805;28;20338;-51
2022/03/17 08:11:15;;;;;;;;;;;10.50;99.90;;;;;;5055401;28;19929;-51
2022/03/17 08:13:42;;;;;;;;;;;10.70;99.90;;;;;;5059059;28;20023;-51
2022/03/17 08:16:10;;;;;;;;;;;10.90;99.90;;;;;;5058307;28;19978;-52
2022/03/17 08:18:38;;;;;;;;;;;10.90;99.90;;;;;;5058797;28;19986;-51
2022/03/17 08:21:06;;;;;;;;;;;11.10;99.90;;;;;;5061223;28;19932;-51
2022/03/17 08:23:33;;;;;;;;;;;10.90;99.90;;;;;;5060517;28;19969;-51
2022/03/17 08:25:59;;;;;;;;;;;11.20;99.90;;;;;;5063798;28;19939;-51
2022/03/17 08:28:27;;;;;;;;;;;11.30;99.90;;;;;;5062892;28;20409;-51
2022/03/17 08:30:53;;;;;;;;;;;11.10;99.90;;;;;;5057982;28;19924;-50
2022/03/17 08:33:20;;;;;;;;;;;11.20;99.90;;;;;;5057129;28;20338;-51
2022/03/17 08:35:47;;;;;;;;;;;11.20;99.90;;;;;;5056612;28;19932;-51
2022/03/17 08:38:15;;;;;;;;;;;11.50;99.90;;;;;;5065227;28;19970;-51
2022/03/17 08:40:42;;;;;;;;;;;11.60;99.90;;;;;;5062861;28;19932;-52
2022/03/17 08:43:09;;;;;;;;;;;11.60;99.90;;;;;;5058509;28;20010;-52
2022/03/17 08:51:05;;;;;;;;;;;12.30;99.90;;;;;;5059309;28;19942;-51
2022/03/17 08:53:33;;;;;;;;;;;12.80;99.90;;;;;;5062488;28;20435;-51
2022/03/17 08:56:01;;;;;;;;;;;12.90;99.90;;;;;;5059986;28;19985;-55
2022/03/17 08:58:28;;;;;;;;;;;13.00;99.90;;;;;;5059531;28;20364;-51
2022/03/17 09:00:55;;;;;;;;;;;12.70;99.90;;;;;;5059146;28;19978;-51
2022/03/17 09:03:25;;;;;;;;;;;12.70;99.90;;;;;;5060533;28;20298;-52
2022/03/17 09:05:52;;;;;;;;;;;12.90;99.90;;;;;;5058953;28;19931;-52
2022/03/17 09:08:19;;;;;;;;;;;13.50;99.90;;;;;;5070153;28;20354;-52
2022/03/17 09:10:48;;;;;;;;;;;13.60;99.90;;;;;;5070216;28;19932;-52
2022/03/17 09:13:15;;;;;;;;;;;13.50;99.90;;;;;;5066729;28;19932;-52
2022/03/17 09:15:42;;;;;;;;;;;14.00;99.90;;;;;;5061056;28;19928;-52
2022/03/17 09:18:10;;;;;;;;;;;14.30;99.90;;;;;;5067192;28;19928;-52
2022/03/17 09:20:36;;;;;;;;;;;14.40;99.90;;;;;;5067200;28;20494;-51
2022/03/17 09:23:03;;;;;;;;;;;14.60;99.90;;;;;;5068079;28;19978;-51
2022/03/17 09:25:30;;;;;;;;;;;15.50;99.90;;;;;;5061847;28;19925;-52
2022/03/17 09:27:58;;;;;;;;;;;15.70;99.90;;;;;;5067316;28;19925;-52
2022/03/17 09:30:25;;;;;;;;;;;16.10;99.90;;;;;;5068897;28;19977;-52
2022/03/17 09:32:54;;;;;;;;;;;15.90;99.90;;;;;;5066195;28;19982;-51
2022/03/17 09:35:21;;;;;;;;;;;16.60;99.90;;;;;;5061117;28;19935;-52
2022/03/17 09:37:48;;;;;;;;;;;16.40;99.90;;;;;;5054023;28;19924;-52
2022/03/17 09:40:15;;;;;;;;;;;16.40;99.90;;;;;;5057784;28;20303;-52
2022/03/17 09:42:42;;;;;;;;;;;16.40;99.90;;;;;;5060108;28;19946;-52
2022/03/17 09:45:11;;;;;;;;;;;16.80;99.90;;;;;;5056560;28;19933;-52
2022/03/17 09:47:38;;;;;;;;;;;16.60;99.90;;;;;;5058910;28;20065;-52
2022/03/17 09:50:07;;;;;;;;;;;16.30;99.90;;;;;;5059955;28;20042;-52
2022/03/17 09:52:35;;;;;;;;;;;16.00;99.90;;;;;;5056680;28;19932;-52
2022/03/17 09:55:02;;;;;;;;;;;16.10;99.90;;;;;;5056059;28;19933;-51
2022/03/17 09:57:29;;;;;;;;;;;16.20;99.90;;;;;;5054462;28;19936;-52
2022/03/17 09:59:56;;;;;;;;;;;16.00;99.90;;;;;;5059396;28;19986;-52
2022/03/17 10:02:25;;;;;;;;;;;15.70;99.90;;;;;;5060073;28;19991;-52
2022/03/17 10:04:52;;;;;;;;;;;16.10;99.90;;;;;;5058156;28;19937;-53
2022/03/17 10:07:20;;;;;;;;;;;16.40;99.90;;;;;;5055855;28;19971;-52
2022/03/17 10:09:47;;;;;;;;;;;16.40;99.90;;;;;;5055792;28;19929;-52
2022/03/17 10:12:15;;;;;;;;;;;16.60;99.90;;;;;;5057041;28;19942;-52
2022/03/17 10:14:42;;;;;;;;;;;16.50;99.90;;;;;;5056464;28;19936;-52
2022/03/17 10:17:26;;;;;;;;;;;16.70;99.90;;;;;;5053977;28;20391;-52
2022/03/17 10:19:54;;;;;;;;;;;16.50;99.90;;;;;;5058009;28;19932;-53
2022/03/17 10:22:21;;;;;;;;;;;16.40;99.90;;;;;;5064406;28;19986;-52
2022/03/17 10:24:52;;;;;;;;;;;16.30;99.90;;;;;;5062636;28;20304;-52
2022/03/17 10:27:36;;;;;;;;;;;15.60;99.90;;;;;;5063338;28;19932;-52
2022/03/17 10:30:06;;;;;;;;;;;15.90;99.90;;;;;;5069722;28;19932;-51
2022/03/17 10:32:33;;;;;;;;;;;16.80;99.90;;;;;;5067633;28;20011;-51
2022/03/17 10:35:02;;;;;;;;;;;16.70;99.90;;;;;;5068692;28;19924;-52
2022/03/17 10:37:30;;;;;;;;;;;16.70;99.90;;;;;;5070167;28;20363;-52
2022/03/17 10:39:57;;;;;;;;;;;16.40;99.90;;;;;;5070178;28;19925;-51
2022/03/17 10:42:26;;;;;;;;;;;16.00;99.90;;;;;;5062598;28;20452;-52
2022/03/17 10:44:54;;;;;;;;;;;15.70;99.90;;;;;;5059474;28;19933;-52
2022/03/17 10:47:25;;;;;;;;;;;15.30;99.90;;;;;;5050884;28;19925;-52
2022/03/17 10:50:04;;;;;;;;;;;15.70;99.90;;;;;;5051033;28;19928;-52
2022/03/17 10:52:43;;;;;;;;;;;15.40;99.90;;;;;;5051143;28;19929;-52
2022/03/17 10:55:11;;;;;;;;;;;15.70;99.90;;;;;;5069489;28;20426;-51
2022/03/17 10:57:38;;;;;;;;;;;15.60;99.90;;;;;;5073742;28;19931;-51
2022/03/17 11:00:09;;;;;;;;;;;15.50;99.90;;;;;;5066720;28;19936;-51
2022/03/17 11:02:38;;;;;;;;;;;15.00;99.90;;;;;;5055062;28;19960;-50
2022/03/17 11:05:10;;;;;;;;;;;14.80;99.90;;;;;;5073743;28;19924;-50
2022/03/17 11:07:38;;;;;;;;;;;14.70;99.90;;;;;;5074524;28;19924;-51
2022/03/17 11:10:07;;;;;;;;;;;14.40;99.90;;;;;;5062087;28;20447;-52
2022/03/17 11:12:34;;;;;;;;;;;14.60;99.90;;;;;;5113711;22;20383;-57
2022/03/17 11:15:01;;;;;;;;;;;14.60;99.90;;;;;;5094592;28;20014;-57
2022/03/17 11:17:30;;;;;;;;;;;14.70;99.90;;;;;;5094892;28;19932;-57
2022/03/17 11:19:59;;;;;;;;;;;14.80;99.90;;;;;;5095304;28;19935;-57
2022/03/17 11:22:29;;;;;;;;;;;14.30;99.90;;;;;;5086160;28;19977;-57
2022/03/17 11:25:11;;;;;;;;;;;13.60;99.90;;;;;;5074688;28;19928;-57
2022/03/17 11:27:44;;;;;;;;;;;13.20;99.90;;;;;;5074064;28;19929;-57
2022/03/17 11:30:12;;;;;;;;;;;13.20;99.90;;;;;;5071657;28;19928;-57
2022/03/17 11:32:48;;;;;;;;;;;13.60;99.90;;;;;;5066983;28;19924;-57
2022/03/17 11:35:17;;;;;;;;;;;13.80;99.90;;;;;;5068282;28;19925;-58
2022/03/17 11:37:46;;;;;;;;;;;14.00;99.90;;;;;;5074223;28;20423;-57
2022/03/17 11:40:14;;;;;;;;;;;13.90;99.90;;;;;;5074035;28;20001;-57
2022/03/17 11:42:41;;;;;;;;;;;14.00;99.90;;;;;;5073130;28;19947;-57
2022/03/17 11:45:23;;;;;;;;;;;14.00;99.90;;;;;;5074043;28;20432;-56
2022/03/17 11:47:51;;;;;;;;;;;14.00;99.90;;;;;;5059847;28;19932;-56
2022/03/17 11:50:27;;;;;;;;;;;14.10;99.90;;;;;;5068161;28;20417;-56
2022/03/17 11:52:59;;;;;;;;;;;13.70;99.90;;;;;;5071600;28;20345;-56
2022/03/17 11:55:34;;;;;;;;;;;13.70;99.90;;;;;;5073900;28;19981;-56
2022/03/17 11:58:19;;;;;;;;;;;13.50;99.90;;;;;;5073533;28;20440;-56
2022/03/17 12:00:46;;;;;;;;;;;13.70;99.90;;;;;;5073472;28;19924;-56
2022/03/17 12:03:13;;;;;;;;;;;13.60;99.90;;;;;;5065973;28;19931;-56
2022/03/17 12:05:42;;;;;;;;;;;13.30;99.90;;;;;;5073748;28;19929;-56
2022/03/17 12:08:16;;;;;;;;;;;13.50;99.90;;;;;;5072352;28;20019;-56
2022/03/17 12:11:02;;;;;;;;;;;13.20;99.90;;;;;;5070544;28;19985;-56
2022/03/17 12:13:28;;;;;;;;;;;13.30;99.90;;;;;;5073475;28;19936;-56
2022/03/17 12:15:56;;;;;;;;;;;13.90;99.90;;;;;;5073193;28;20383;-56
2022/03/17 12:18:22;;;;;;;;;;;13.80;99.90;;;;;;5076862;28;19986;-56
2022/03/17 12:20:52;;;;;;;;;;;13.70;99.90;;;;;;5072954;28;19924;-56
2022/03/17 12:23:45;;;;;;;;;;;13.50;99.90;;;;;;5072956;28;19928;-56
2022/03/17 12:26:12;;;;;;;;;;;13.50;99.90;;;;;;5072897;28;20015;-56
2022/03/17 12:28:44;;;;;;;;;;;13.60;99.90;;;;;;5073424;28;19929;-56
2022/03/17 12:31:10;;;;;;;;;;;13.70;99.90;;;;;;5072788;28;19928;-56
2022/03/17 12:33:37;;;;;;;;;;;13.90;99.90;;;;;;5072815;28;19924;-57
2022/03/17 12:36:04;;;;;;;;;;;13.50;99.90;;;;;;5072442;28;19924;-56
2022/03/17 12:38:32;;;;;;;;;;;13.60;99.90;;;;;;5073390;28;19924;-56
2022/03/17 12:41:01;;;;;;;;;;;13.60;99.90;;;;;;5073342;28;19924;-56
2022/03/17 12:43:34;;;;;;;;;;;13.50;99.90;;;;;;5072671;28;20344;-56
2022/03/17 12:46:00;;;;;;;;;;;13.70;99.90;;;;;;5072470;28;19924;-56
2022/03/17 12:48:30;;;;;;;;;;;13.40;99.90;;;;;;5072423;28;19932;-56
2022/03/17 12:51:03;;;;;;;;;;;13.30;99.90;;;;;;5072678;28;20007;-56
2022/03/17 12:53:30;;;;;;;;;;;13.50;99.90;;;;;;5061891;28;20352;-56
2022/03/17 12:55:57;;;;;;;;;;;13.60;99.90;;;;;;5072200;28;20279;-57
2022/03/17 12:58:25;;;;;;;;;;;13.70;99.90;;;;;;5072330;28;20302;-56
2022/03/17 13:00:52;;;;;;;;;;;13.90;99.90;;;;;;5072288;28;19979;-56
2022/03/17 13:03:21;;;;;;;;;;;13.90;99.90;;;;;;5072093;28;19936;-56
2022/03/17 13:08:36;;;;;;;;;;;13.40;99.90;;;;;;5072288;28;20444;-56
2022/03/17 13:16:33;;;;;;;;;;;13.60;99.90;;;;;;5072165;28;19970;-57
2022/03/17 13:19:00;;;;;;;;;;;13.70;99.90;;;;;;5070946;28;20039;-55
2022/03/17 13:21:27;;;;;;;;;;;13.80;99.90;;;;;;5072383;28;19924;-56
2022/03/17 13:23:53;;;;;;;;;;;13.60;99.90;;;;;;5071897;28;20001;-57
2022/03/17 13:26:21;;;;;;;;;;;13.50;99.90;;;;;;5071980;28;19928;-56
2022/03/17 13:29:00;;;;;;;;;;;13.70;99.90;;;;;;5071902;28;20003;-57
2022/03/17 13:31:33;;;;;;;;;;;13.80;99.90;;;;;;5071323;28;19932;-56
2022/03/17 13:33:59;;;;;;;;;;;13.90;99.90;;;;;;5071858;28;20003;-56
2022/03/17 13:36:41;;;;;;;;;;;13.80;99.90;;;;;;5071429;28;19978;-57
2022/03/17 13:39:10;;;;;;;;;;;14.10;99.90;;;;;;5071466;28;20387;-57
2022/03/17 13:41:37;;;;;;;;;;;14.10;99.90;;;;;;5070761;28;19978;-57
2022/03/17 13:44:05;;;;;;;;;;;14.20;99.90;;;;;;5072637;28;20020;-57
2022/03/17 13:46:40;;;;;;;;;;;14.50;99.90;;;;;;5071571;28;20441;-56
2022/03/17 13:49:14;;;;;;;;;;;14.80;99.90;;;;;;5071385;28;20449;-56
2022/03/17 13:51:41;;;;;;;;;;;14.50;99.90;;;;;;5070740;28;19924;-57
2022/03/17 13:54:08;;;;;;;;;;;14.50;99.90;;;;;;5071232;28;19932;-56
2022/03/17 13:56:36;;;;;;;;;;;14.50;99.90;;;;;;5087063;28;19924;-57
2022/03/17 13:59:03;;;;;;;;;;;14.40;99.90;;;;;;5091737;28;19930;-56
2022/03/17 14:01:31;;;;;;;;;;;14.40;99.90;;;;;;5083411;28;20284;-56
2022/03/17 14:03:59;;;;;;;;;;;14.00;99.90;;;;;;5077839;28;19932;-56
2022/03/17 14:06:30;;;;;;;;;;;14.10;99.90;;;;;;5090730;28;19928;-57
2022/03/17 14:08:57;;;;;;;;;;;14.40;99.90;;;;;;5089247;28;20394;-56
2022/03/17 14:11:25;;;;;;;;;;;14.30;99.90;;;;;;5071633;28;20373;-56
2022/03/17 14:13:53;;;;;;;;;;;14.50;99.90;;;;;;5089884;28;20301;-57
2022/03/17 14:16:20;;;;;;;;;;;14.10;99.90;;;;;;5077727;28;19986;-57
2022/03/17 14:18:49;;;;;;;;;;;14.00;99.90;;;;;;5069989;28;19978;-56
2022/03/17 14:21:17;;;;;;;;;;;14.20;99.90;;;;;;5079126;28;19924;-57
2022/03/17 14:26:33;;;;;;;;;;;14.20;99.90;;;;;;5071099;28;20359;-57
2022/03/17 14:29:00;;;;;;;;;;;14.10;99.90;;;;;;5071035;28;20409;-56
2022/03/17 14:31:27;;;;;;;;;;;14.30;99.90;;;;;;5081086;28;19932;-57
2022/03/17 14:33:55;;;;;;;;;;;14.30;99.90;;;;;;5075134;28;20414;-57
2022/03/17 14:36:27;;;;;;;;;;;14.20;99.90;;;;;;5075089;28;19982;-57
2022/03/17 14:38:53;;;;;;;;;;;14.10;99.90;;;;;;5090746;28;19997;-58
2022/03/17 14:41:21;;;;;;;;;;;13.90;99.90;;;;;;5082608;28;19924;-57
2022/03/17 14:43:48;;;;;;;;;;;13.90;99.90;;;;;;5075178;28;20381;-57
2022/03/17 14:46:16;;;;;;;;;;;13.40;99.90;;;;;;5075023;28;20053;-57
2022/03/17 14:48:43;;;;;;;;;;;13.40;99.90;;;;;;5075122;28;19970;-57
2022/03/17 14:51:12;;;;;;;;;;;13.30;99.90;;;;;;5074341;28;20193;-57
2022/03/17 14:53:39;;;;;;;;;;;13.60;99.90;;;;;;5075703;28;20314;-57
2022/03/17 14:56:09;;;;;;;;;;;13.80;99.90;;;;;;5074747;28;19978;-57